Time;durP1;ratioP1;P1;durP2;ratioP2;P2;SDS_P1;SDS_P2;PMS_P1;PMS_P2;Temp;Humidity;BMP_temperature;BMP_pressure;BME280_temperature;BME280_humidity;BME280_pressure;Samples;Min_cycle;Max_cycle;Signal;HPM_P1;HPM_P2
2022/08/17 00:01:17;;;;;;;5.50;3.47;;;;;;;21.19;100.00;98481.19;5152476;27;20909;-52
2022/08/17 00:03:46;;;;;;;12.40;3.90;;;;;;;21.27;100.00;98534.69;5152020;27;20053;-53
2022/08/17 00:06:15;;;;;;;7.72;3.47;;;;;;;21.35;100.00;98603.69;5152034;27;20046;-52
2022/08/17 00:08:46;;;;;;;9.93;3.92;;;;;;;20.86;100.00;98653.50;5151934;27;20062;-52
2022/08/17 00:11:15;;;;;;;9.55;3.35;;;;;;;21.14;100.00;98702.72;5151992;27;20194;-51
2022/08/17 00:13:44;;;;;;;4.57;3.40;;;;;;;20.88;100.00;98751.34;5152159;27;20413;-54
2022/08/17 00:16:14;;;;;;;5.30;3.72;;;;;;;21.00;100.00;98802.75;5151954;27;20061;-54
2022/08/17 00:18:42;;;;;;;6.32;4.15;;;;;;;21.01;100.00;98807.09;5152027;27;20047;-54
2022/08/17 00:21:10;;;;;;;7.57;4.80;;;;;;;21.10;100.00;98731.97;5152164;27;20432;-54
2022/08/17 00:23:36;;;;;;;9.52;3.90;;;;;;;21.07;100.00;98789.38;5152035;27;20051;-51
2022/08/17 00:26:02;;;;;;;4.25;3.85;;;;;;;20.85;100.00;98880.38;5151637;27;20057;-51
2022/08/17 00:28:29;;;;;;;5.90;4.13;;;;;;;21.10;100.00;98835.84;5151984;27;20130;-51
2022/08/17 00:30:55;;;;;;;7.97;3.92;;;;;;;21.14;100.00;98828.16;5151663;27;20058;-54
2022/08/17 00:33:26;;;;;;;15.95;4.38;;;;;;;20.90;100.00;98857.56;5151506;27;20141;-51
2022/08/17 00:35:52;;;;;;;7.05;3.70;;;;;;;20.79;100.00;98921.16;5152150;27;20520;-52
2022/08/17 00:38:20;;;;;;;9.20;4.38;;;;;;;20.65;100.00;98948.16;5151866;27;20050;-53
2022/08/17 00:40:50;;;;;;;13.20;4.35;;;;;;;20.70;100.00;98938.50;5151689;27;20050;-53
2022/08/17 00:43:20;;;;;;;9.82;4.15;;;;;;;20.73;100.00;98954.34;5151669;27;20422;-52
2022/08/17 00:45:48;;;;;;;8.10;3.80;;;;;;;20.64;100.00;98990.38;5151747;27;20047;-54
2022/08/17 00:48:14;;;;;;;9.82;3.67;;;;;;;;;;5151355;27;20079;-53
2022/08/17 00:50:48;;;;;;;7.65;3.70;;;;;;;20.54;100.00;99030.44;5151740;27;20110;-52
2022/08/17 00:53:15;;;;;;;6.28;3.90;;;;;;;20.68;100.00;99030.84;5151448;27;20058;-51
2022/08/17 00:55:42;;;;;;;8.43;4.07;;;;;;;20.44;100.00;99060.84;5151487;27;20159;-54
2022/08/17 00:58:09;;;;;;;6.30;3.30;;;;;;;20.29;100.00;99054.03;5151224;27;20489;-54
2022/08/17 01:00:39;;;;;;;14.05;4.00;;;;;;;20.37;100.00;99060.25;5151315;27;20053;-50
2022/08/17 01:03:10;;;;;;;12.95;3.95;;;;;;;20.36;100.00;99058.66;5151121;27;20098;-51
2022/08/17 01:05:38;;;;;;;8.63;3.85;;;;;;;20.02;100.00;99100.78;5151485;27;20050;-53
2022/08/17 01:08:07;;;;;;;9.90;3.97;;;;;;;20.31;100.00;99135.13;5151477;27;20047;-52
2022/08/17 01:10:38;;;;;;;8.45;4.18;;;;;;;20.41;100.00;99056.16;5151314;27;20531;-52
2022/08/17 01:13:06;;;;;;;12.88;4.25;;;;;;;20.35;100.00;99043.97;5151471;27;20046;-52
2022/08/17 01:15:35;;;;;;;10.40;4.07;;;;;;;20.22;100.00;99043.84;5151051;27;20514;-54
2022/08/17 01:18:02;;;;;;;5.30;3.60;;;;;;;20.43;100.00;99039.03;5151213;27;20053;-50
2022/08/17 01:20:29;;;;;;;9.25;3.95;;;;;;;20.34;100.00;99041.63;5151068;27;20051;-51
2022/08/17 01:22:56;;;;;;;15.73;4.05;;;;;;;20.08;100.00;99060.88;5151115;27;20065;-53
2022/08/17 01:25:24;;;;;;;6.85;3.85;;;;;;;19.82;100.00;99120.28;5151244;27;20131;-51
2022/08/17 01:27:50;;;;;;;6.25;3.90;;;;;;;20.12;100.00;99136.72;5151214;27;20200;-54
2022/08/17 01:30:17;;;;;;;6.03;4.13;;;;;;;20.09;100.00;99068.03;5151224;27;20042;-51
2022/08/17 01:32:44;;;;;;;7.60;3.92;;;;;;;20.21;100.00;99075.69;5150767;27;20061;-52
2022/08/17 01:35:10;;;;;;;7.80;3.58;;;;;;;20.17;100.00;99063.88;5151207;27;20054;-51
2022/08/17 01:37:38;;;;;;;9.20;4.78;;;;;;;20.19;100.00;99030.84;5153031;27;20179;-53
2022/08/17 01:40:12;;;;;;;9.70;4.18;;;;;;;20.06;100.00;99090.34;5154410;27;20519;-54
2022/08/17 01:42:43;;;;;;;17.05;3.92;;;;;;;19.94;100.00;99089.81;5154350;27;20050;-51
2022/08/17 01:45:13;;;;;;;9.68;5.20;;;;;;;19.84;100.00;99134.56;5154597;27;20054;-54
2022/08/17 01:47:40;;;;;;;12.30;5.10;;;;;;;19.95;100.00;99123.97;5154428;27;20098;-53
2022/08/17 01:50:10;;;;;;;11.10;4.10;;;;;;;19.93;100.00;99085.47;5154689;27;20051;-51
2022/08/17 01:52:37;;;;;;;10.00;3.80;;;;;;;20.02;100.00;99075.75;5154192;27;20486;-53
2022/08/17 01:55:06;;;;;;;10.00;5.30;;;;;;;19.95;100.00;99096.94;5154206;27;20050;-51
2022/08/17 01:57:32;;;;;;;6.63;4.63;;;;;;;19.86;100.00;99115.41;5154046;27;20481;-53
2022/08/17 01:59:59;;;;;;;5.82;4.68;;;;;;;19.86;100.00;99146.84;5154135;27;20140;-51
2022/08/17 02:02:25;;;;;;;7.38;4.60;;;;;;;19.93;100.00;99102.16;5154352;27;20057;-53
2022/08/17 02:04:51;;;;;;;6.97;3.90;;;;;;;19.88;100.00;99072.06;5154048;27;20138;-53
2022/08/17 02:07:19;;;;;;;10.38;3.88;;;;;;;19.79;100.00;99104.44;5154414;27;20051;-51
2022/08/17 02:09:46;;;;;;;6.93;3.58;;;;;;;19.87;100.00;99097.53;5154023;27;20054;-53
2022/08/17 02:12:13;;;;;;;12.32;3.88;;;;;;;19.95;100.00;99101.72;5154144;27;20182;-52
2022/08/17 02:14:39;;;;;;;8.07;3.58;;;;;;;19.63;100.00;99127.41;5153849;27;20047;-53
2022/08/17 02:17:05;;;;;;;9.88;4.93;;;;;;;19.93;100.00;99099.38;5154121;27;20082;-51
2022/08/17 02:19:32;;;;;;;7.45;5.07;;;;;;;19.78;100.00;99114.00;5154205;27;20137;-53
2022/08/17 02:21:58;;;;;;;8.88;4.40;;;;;;;19.73;100.00;99112.53;5154170;27;20051;-54
2022/08/17 02:24:28;;;;;;;11.15;4.80;;;;;;;19.74;100.00;99100.97;5154300;27;20061;-53
2022/08/17 02:26:54;;;;;;;8.85;4.97;;;;;;;19.63;100.00;99103.19;5153649;27;20058;-51
2022/08/17 02:29:21;;;;;;;6.18;3.90;;;;;;;19.45;100.00;99109.03;5154101;27;20413;-50
2022/08/17 02:31:48;;;;;;;7.75;4.93;;;;;;;19.62;100.00;99145.28;5154008;27;20046;-50
2022/08/17 02:34:14;;;;;;;11.05;3.63;;;;;;;19.51;100.00;99184.41;5153957;27;20141;-51
2022/08/17 02:36:41;;;;;;;8.65;4.00;;;;;;;19.51;100.00;99142.69;5153550;27;20070;-50
2022/08/17 02:39:09;;;;;;;6.70;4.47;;;;;;;19.39;100.00;99185.00;5153961;27;20414;-51
2022/08/17 02:41:35;;;;;;;10.43;3.85;;;;;;;19.20;100.00;99176.22;5153469;27;20046;-52
2022/08/17 02:44:02;;;;;;;9.32;3.63;;;;;;;19.58;100.00;99189.06;5153418;27;20047;-50
2022/08/17 02:46:30;;;;;;;8.50;3.65;;;;;;;19.42;100.00;99171.06;5153538;27;20046;-53
2022/08/17 02:48:57;;;;;;;10.27;4.07;;;;;;;19.61;100.00;99158.41;5152041;27;20659;-52
2022/08/17 02:51:23;;;;;;;13.60;4.10;;;;;;;19.42;100.00;99159.94;5153395;27;20133;-52
2022/08/17 02:53:50;;;;;;;6.90;3.70;;;;;;;19.30;100.00;99201.47;5153292;27;20051;-51
2022/08/17 02:56:16;;;;;;;9.50;4.10;;;;;;;19.20;100.00;99251.25;5153652;27;20146;-51
2022/08/17 02:58:42;;;;;;;10.15;4.38;;;;;;;19.34;100.00;99252.22;5153420;27;20049;-52
2022/08/17 03:01:11;;;;;;;10.85;4.30;;;;;;;19.00;100.00;99261.50;5153845;27;20107;-53
2022/08/17 03:03:38;;;;;;;7.95;4.88;;;;;;;19.33;100.00;99259.00;5153345;27;20421;-51
2022/08/17 03:06:06;;;;;;;7.13;5.10;;;;;;;18.98;100.00;99266.66;5153404;27;20398;-54
2022/08/17 03:08:32;;;;;;;12.40;4.85;;;;;;;19.10;100.00;99279.22;5153007;27;20047;-54
2022/08/17 03:10:59;;;;;;;8.98;4.30;;;;;;;19.21;100.00;99277.81;5153159;27;20050;-54
2022/08/17 03:13:26;;;;;;;6.45;3.60;;;;;;;19.11;100.00;99273.22;5153075;27;20047;-51
2022/08/17 03:15:52;;;;;;;11.80;4.57;;;;;;;19.11;100.00;99287.09;5152887;27;20050;-53
2022/08/17 03:18:20;;;;;;;6.35;4.20;;;;;;;19.23;100.00;99272.66;5153463;27;20051;-51
2022/08/17 03:20:47;;;;;;;6.50;5.00;;;;;;;19.10;100.00;99265.31;5153018;27;20047;-54
2022/08/17 03:23:13;;;;;;;5.70;4.10;;;;;;;19.17;100.00;99259.66;5153047;27;20050;-53
2022/08/17 03:25:42;;;;;;;6.18;4.20;;;;;;;19.04;100.00;99293.56;5153020;27;20056;-51
2022/08/17 03:28:10;;;;;;;12.27;5.28;;;;;;;19.10;100.00;99282.78;5153107;27;20057;-50
2022/08/17 03:30:37;;;;;;;12.25;5.30;;;;;;;19.60;100.00;99261.72;5152632;27;20058;-54
2022/08/17 03:33:06;;;;;;;7.25;4.10;;;;;;;19.71;100.00;99215.84;5152993;27;20050;-54
2022/08/17 03:35:35;;;;;;;8.07;4.05;;;;;;;19.46;100.00;99207.13;5152590;27;20043;-52
2022/08/17 03:38:02;;;;;;;12.55;4.30;;;;;;;19.79;100.00;99190.69;5152719;27;20047;-53
2022/08/17 03:40:30;;;;;;;6.50;3.97;;;;;;;19.32;100.00;99202.59;5152805;27;20050;-54
2022/08/17 03:42:56;;;;;;;7.28;4.15;;;;;;;19.50;100.00;99205.88;5152495;27;20419;-54
2022/08/17 03:56:43;;;;;;;9.90;4.03;;;;;;;19.10;100.00;99265.31;5152540;27;20422;-52
2022/08/17 03:59:15;;;;;;;12.70;4.10;;;;;;;19.11;100.00;99270.44;5152206;27;20061;-54
2022/08/17 04:01:41;;;;;;;7.10;3.55;;;;;;;19.41;100.00;99277.13;5152505;27;20560;-53
2022/08/17 04:04:08;;;;;;;6.88;3.30;;;;;;;19.60;100.00;99226.34;5152991;27;20054;-53
2022/08/17 04:06:34;;;;;;;6.40;4.05;;;;;;;19.52;100.00;99211.00;5152418;27;20047;-51
2022/08/17 04:09:01;;;;;;;9.05;4.38;;;;;;;19.63;100.00;99197.72;5152433;27;20054;-53
2022/08/17 04:11:28;;;;;;;9.05;3.78;;;;;;;19.74;100.00;99191.97;5152144;27;20050;-53
2022/08/17 04:13:55;;;;;;;5.75;4.10;;;;;;;19.64;100.00;99184.59;5152042;27;20506;-53
2022/08/17 04:16:22;;;;;;;11.07;3.97;;;;;;;19.60;100.00;99169.97;5151879;27;20043;-53
2022/08/17 04:18:49;;;;;;;10.48;6.18;;;;;;;19.42;100.00;99186.94;5152183;27;20050;-51
2022/08/17 04:21:15;;;;;;;10.73;4.40;;;;;;;19.56;100.00;99224.84;5152098;27;20102;-51
2022/08/17 04:23:41;;;;;;;6.85;4.00;;;;;;;19.32;100.00;99235.19;5151642;27;20052;-53
2022/08/17 04:26:08;;;;;;;11.57;3.72;;;;;;;19.44;100.00;99242.94;5152274;27;20087;-53
2022/08/17 04:28:34;;;;;;;15.07;4.30;;;;;;;19.12;100.00;99240.66;5151737;27;20073;-53
2022/08/17 04:31:00;;;;;;;10.32;4.07;;;;;;;19.49;100.00;99268.25;5152008;27;20463;-53
2022/08/17 04:33:29;;;;;;;9.02;4.35;;;;;;;19.38;100.00;99266.84;5151841;27;20051;-53
2022/08/17 04:35:58;;;;;;;7.00;4.32;;;;;;;19.29;100.00;99256.25;5151966;27;20130;-51
2022/08/17 04:38:26;;;;;;;13.18;4.10;;;;;;;19.68;100.00;99229.81;5151520;27;20046;-53
2022/08/17 04:43:40;;;;;;;5.72;4.38;;;;;;;19.60;100.00;99231.13;5151759;27;20058;-54
2022/08/17 04:46:09;;;;;;;6.55;3.78;;;;;;;19.62;100.00;99206.44;5151517;27;20050;-51
2022/08/17 04:48:37;;;;;;;8.93;4.10;;;;;;;19.73;100.00;99191.19;5152241;27;20043;-53
2022/08/17 04:51:06;;;;;;;6.47;3.78;;;;;;;19.93;100.00;99157.03;5151700;27;20050;-50
2022/08/17 04:53:32;;;;;;;8.60;3.97;;;;;;;20.17;100.00;99096.50;5151760;27;20058;-51
2022/08/17 04:55:58;;;;;;;7.60;4.38;;;;;;;20.27;100.00;99039.78;5151366;27;20051;-51
2022/08/17 04:58:25;;;;;;;4.88;3.53;;;;;;;20.49;100.00;99034.47;5151449;27;20577;-53
2022/08/17 05:00:52;;;;;;;10.65;3.97;;;;;;;20.55;100.00;98926.16;5151507;27;20058;-51
2022/08/17 05:03:18;;;;;;;7.32;3.83;;;;;;;21.07;100.00;98822.81;5151596;27;20399;-52
2022/08/17 05:05:48;;;;;;;12.02;3.78;;;;;;;21.91;100.00;98548.31;5151910;27;20565;-54
2022/08/17 05:08:16;;;;;;;12.18;4.05;;;;;;;22.74;100.00;98239.28;5151095;27;20050;-57
2022/08/17 05:10:42;;;;;;;10.10;4.47;;;;;;;23.69;100.00;97978.53;5151117;27;20517;-53
2022/08/17 05:13:11;;;;;;;12.98;4.35;;;;;;;23.46;100.00;97918.63;5154344;27;20058;-56
2022/08/17 05:15:39;;;;;;;4.28;3.60;;;;;;;23.73;100.00;97891.59;5155095;27;20091;-57
2022/08/17 05:18:07;;;;;;;6.22;3.53;;;;;;;23.42;100.00;97912.41;5154860;27;20530;-56
2022/08/17 05:20:34;;;;;;;6.07;3.95;;;;;;;23.75;100.00;97877.13;5155172;27;20050;-59
2022/08/17 05:23:06;;;;;;;13.50;4.18;;;;;;;24.92;100.00;97841.44;5154511;27;20501;-58
2022/08/17 05:25:35;;;;;;;6.65;3.50;;;;;;;24.64;100.00;97824.34;5155012;27;20057;-59
2022/08/17 05:28:02;;;;;;;8.05;4.35;;;;;;;24.39;100.00;97834.22;5154648;27;20413;-59
2022/08/17 05:30:28;;;;;;;13.85;4.35;;;;;;;24.55;100.00;97824.50;5154495;27;20137;-59
2022/08/17 05:32:58;;;;;;;9.23;4.50;;;;;;;25.09;100.00;97836.00;5154771;27;20480;-58
2022/08/17 05:35:25;;;;;;;10.30;4.55;;;;;;;24.24;100.00;97830.72;5154433;27;20046;-58
2022/08/17 05:37:52;;;;;;;9.93;4.38;;;;;;;23.89;100.00;97835.13;5154713;27;20053;-63
2022/08/17 05:40:20;;;;;;;10.65;4.60;;;;;;;23.41;100.00;97840.97;5154380;27;20062;-58
2022/08/17 05:42:46;;;;;;;5.13;4.13;;;;;;;24.48;100.00;97822.13;5154506;27;20043;-55
2022/08/17 05:45:14;;;;;;;7.22;3.60;;;;;;;25.86;100.00;97830.78;5154480;27;20050;-60
2022/08/17 05:47:43;;;;;;;10.73;4.90;;;;;;;25.49;100.00;97873.59;5154652;27;20103;-59
2022/08/17 05:50:22;;;;;;;13.00;4.70;;;;;;;25.68;100.00;97860.75;5154142;27;20102;-61
2022/08/17 05:52:59;;;;;;;9.88;4.78;;;;;;;26.25;100.00;97884.34;5154416;27;20055;-59
2022/08/17 05:55:34;;;;;;;8.10;4.13;;;;;;;25.73;100.00;97885.28;5154508;27;20136;-58
2022/08/17 05:58:13;;;;;;;14.02;4.78;;;;;;;25.61;100.00;97891.31;5154133;27;20062;-62
2022/08/17 06:00:49;;;;;;;11.15;4.10;;;;;;;26.09;100.00;97905.47;5154132;27;20133;-59
2022/08/17 06:03:39;;;;;;;9.13;3.90;;;;;;;26.37;100.00;97922.50;5153852;27;20137;-57
2022/08/17 06:06:22;;;;;;;9.05;4.45;;;;;;;26.79;100.00;97946.22;5154022;27;20051;-59
2022/08/17 06:08:56;;;;;;;7.90;4.05;;;;;;;27.26;100.00;98050.75;5153924;27;20086;-64
2022/08/17 06:11:29;;;;;;;6.57;4.05;;;;;;;27.89;100.00;98080.63;5153892;27;20106;-63
2022/08/17 06:14:18;;;;;;;12.55;4.53;;;;;;;27.21;100.00;98105.72;5154032;27;20141;-63
2022/08/17 06:16:47;;;;;;;13.13;4.25;;;;;;;28.03;100.00;98084.50;5153936;27;20053;-63
2022/08/17 06:19:18;;;;;;;9.07;4.10;;;;;;;27.30;100.00;98093.50;5154090;27;20481;-63
2022/08/17 06:21:48;;;;;;;9.48;4.40;;;;;;;26.68;100.00;98039.69;5153580;27;20089;-63
2022/08/17 06:24:24;;;;;;;13.18;4.80;;;;;;;28.04;100.00;98055.06;5153474;27;20043;-63
2022/08/17 06:26:51;;;;;;;12.10;4.25;;;;;;;27.92;100.00;98093.69;5153739;27;20057;-63
2022/08/17 06:29:34;;;;;;;10.50;4.47;;;;;;;27.81;100.00;98096.50;5153537;27;20050;-63
2022/08/17 06:32:01;;;;;;;8.90;4.22;;;;;;;28.52;100.00;98136.56;5153678;27;20054;-63
2022/08/17 06:34:28;;;;;;;8.57;4.60;;;;;;;29.26;100.00;98129.56;5153537;27;20114;-63
2022/08/17 06:37:05;;;;;;;13.95;4.50;;;;;;;28.13;100.00;98179.53;5153741;27;20046;-63
2022/08/17 06:39:44;;;;;;;9.88;4.10;;;;;;;28.80;100.00;98150.66;5153343;27;20133;-63
2022/08/17 06:42:24;;;;;;;7.50;4.10;;;;;;;29.44;100.00;98187.50;5153722;27;20054;-64
2022/08/17 06:44:54;;;;;;;16.65;4.43;;;;;;;29.56;100.00;98199.53;5153398;27;20055;-64
2022/08/17 06:47:25;;;;;;;9.02;4.57;;;;;;;29.86;100.00;98225.13;5153419;27;20046;-64
2022/08/17 06:50:02;;;;;;;11.20;4.43;;;;;;;29.15;100.00;98169.09;5153331;27;20134;-64
2022/08/17 06:52:33;;;;;;;13.18;4.35;;;;;;;29.21;100.00;98174.72;5153221;27;20054;-64
2022/08/17 06:55:04;;;;;;;11.02;4.40;;;;;;;29.65;100.00;98181.56;5153416;27;20058;-64
2022/08/17 06:57:34;;;;;;;17.45;4.20;;;;;;;28.75;100.00;98201.41;5153243;27;20474;-64
2022/08/17 07:00:06;;;;;;;15.65;4.30;;;;;;;29.18;100.00;98224.50;5153133;27;20054;-64
2022/08/17 07:02:44;;;;;;;10.13;4.55;;;;;;;28.06;100.00;98140.59;5153168;27;20485;-63
2022/08/17 07:05:13;;;;;;;12.10;5.30;;;;;;;27.37;100.00;98058.47;5152960;27;20417;-63
2022/08/17 07:08:01;;;;;;;10.32;4.45;;;;;;;28.26;100.00;98122.69;5152922;27;20053;-63
2022/08/17 07:10:35;;;;;;;8.02;4.35;;;;;;;28.93;100.00;98116.28;5152974;27;20047;-64
2022/08/17 07:13:12;;;;;;;;;;;;;;;29.07;100.00;98185.03;5153721;27;20130;-64
2022/08/17 07:15:41;;;;;;;20.85;5.28;;;;;;;29.38;100.00;98217.78;5152907;27;19923;-64
2022/08/17 07:18:08;;;;;;;16.02;5.05;;;;;;;29.54;100.00;98267.81;5153090;27;20425;-63
2022/08/17 07:20:37;;;;;;;10.10;4.38;;;;;;;29.84;100.00;98236.19;5152890;27;20047;-64
2022/08/17 07:23:18;;;;;;;12.48;4.85;;;;;;;29.64;100.00;98216.75;5152767;27;20417;-64
2022/08/17 07:25:45;;;;;;;12.95;5.25;;;;;;;30.44;100.00;98300.69;5153544;27;20405;-64
2022/08/17 07:28:11;;;;;;;15.23;5.38;;;;;;;30.93;100.00;98303.75;5152797;27;20050;-64
2022/08/17 07:30:42;;;;;;;12.30;4.88;;;;;;;30.55;100.00;98282.88;5152909;27;20042;-64
2022/08/17 07:33:12;;;;;;;16.33;5.70;;;;;;;30.42;100.00;98275.78;5152555;27;20070;-64
2022/08/17 07:35:39;;;;;;;15.90;5.22;;;;;;;31.31;100.00;98315.28;5152009;27;20406;-64
2022/08/17 07:38:09;;;;;;;12.05;4.82;;;;;;;31.51;100.00;98319.78;5152563;27;20050;-64
2022/08/17 07:40:38;;;;;;;15.77;5.07;;;;;;;29.88;100.00;98272.63;5152799;27;20046;-64
2022/08/17 07:43:16;;;;;;;13.60;4.60;;;;;;;30.57;100.00;98269.75;5152357;27;20102;-64
2022/08/17 07:48:51;;;;;;;18.98;4.40;;;;;;;29.66;100.00;98262.94;5152641;27;20103;-64
2022/08/17 07:51:23;;;;;;;14.15;4.43;;;;;;;29.99;100.00;98310.09;5152817;27;20054;-64
2022/08/17 07:53:51;;;;;;;13.07;4.43;;;;;;;30.19;100.00;98317.53;5152273;27;20046;-64
2022/08/17 07:56:40;;;;;;;16.38;3.92;;;;;;;30.87;100.00;98342.66;5152614;27;20057;-64
2022/08/17 07:59:10;;;;;;;13.13;4.85;;;;;;;31.23;100.00;98383.06;5145545;27;20493;-64
2022/08/17 08:01:38;;;;;;;17.20;4.40;;;;;;;31.50;100.00;98380.56;5152219;27;20050;-64
2022/08/17 08:04:18;;;;;;;11.65;3.85;;;;;;;30.83;100.00;98401.59;5152151;27;20062;-64
2022/08/17 08:06:52;;;;;;;7.90;3.88;;;;;;;31.00;100.00;98413.56;5152248;27;20047;-64
2022/08/17 08:09:37;;;;;;;10.68;3.60;;;;;;;30.75;100.00;98398.50;5152128;27;20050;-64
2022/08/17 08:12:28;;;;;;;10.50;4.05;;;;;;;31.78;100.00;98395.22;5151976;27;20051;-64
2022/08/17 08:14:58;;;;;;;14.15;4.10;;;;;;;31.06;100.00;98414.31;5152030;27;20050;-64
2022/08/17 08:17:30;;;;;;;8.60;4.20;;;;;;;30.60;100.00;98424.28;5152014;27;20050;-64
2022/08/17 08:19:59;;;;;;;13.05;3.70;;;;;;;30.76;100.00;98397.25;5152026;27;20104;-64
2022/08/17 08:22:34;;;;;;;8.23;3.63;;;;;;;30.25;100.00;98374.78;5151908;27;20418;-64
2022/08/17 08:25:15;;;;;;;8.52;4.13;;;;;;;31.65;100.00;98397.94;5151699;27;20059;-65
2022/08/17 08:27:49;;;;;;;9.52;3.40;;;;;;;30.88;100.00;98395.09;5151869;27;20050;-65
2022/08/17 08:30:20;;;;;;;13.43;3.85;;;;;;;30.48;100.00;98380.34;5151938;27;20110;-64
2022/08/17 08:33:16;;;;;;;12.25;3.90;;;;;;;31.46;100.00;98412.00;5151639;27;20047;-64
2022/08/17 08:35:49;;;;;;;9.32;3.80;;;;;;;31.36;100.00;98407.97;5130478;27;20046;-64
2022/08/17 08:38:25;;;;;;;8.98;4.18;;;;;;;30.46;100.00;98408.41;5151808;27;20046;-64
2022/08/17 08:41:19;;;;;;;7.55;3.70;;;;;;;29.68;100.00;98359.22;5151499;27;20053;-64
2022/08/17 08:43:59;;;;;;;12.73;3.67;;;;;;;30.25;100.00;98374.00;5151582;27;20092;-59
2022/08/17 08:46:34;;;;;;;10.60;4.15;;;;;;;30.18;100.00;98361.19;5151360;27;20138;-58
2022/08/17 08:49:36;;;;;;;12.50;3.75;;;;;;;29.86;100.00;98346.63;5151363;27;20051;-62
2022/08/17 08:52:07;;;;;;;8.05;3.67;;;;;;;29.74;100.00;98330.97;5133773;27;20050;-65
2022/08/17 08:54:41;;;;;;;13.40;3.65;;;;;;;29.94;100.00;98335.56;5151333;27;20141;-59
2022/08/17 08:57:17;;;;;;;8.77;4.00;;;;;;;30.70;100.00;98359.69;5151200;27;20053;-60
2022/08/17 08:59:58;;;;;;;9.10;3.42;;;;;;;30.57;100.00;98390.63;5151635;27;20161;-59
2022/08/17 09:02:46;;;;;;;11.35;3.47;;;;;;;30.86;100.00;98392.81;5151223;27;20086;-60
2022/08/17 09:05:25;;;;;;;9.13;3.70;;;;;;;29.83;100.00;98355.38;5151255;27;20413;-63
2022/08/17 09:08:02;;;;;;;11.63;3.35;;;;;;;31.32;100.00;98373.44;5151144;27;20111;-64
2022/08/17 09:10:34;;;;;;;9.75;3.50;;;;;;;31.52;100.00;98387.22;5151273;27;20098;-62
2022/08/17 09:13:09;;;;;;;10.40;3.25;;;;;;;32.03;100.00;98403.81;5151117;27;20096;-64
2022/08/17 09:15:41;;;;;;;11.02;3.60;;;;;;;32.73;100.00;98436.03;5150954;27;20047;-67
2022/08/17 09:18:14;;;;;;;10.18;3.40;;;;;;;31.46;100.00;98414.06;5151494;27;20047;-60
2022/08/17 09:20:46;;;;;;;11.00;3.45;;;;;;;31.82;100.00;98398.56;5151083;27;20050;-59
2022/08/17 09:23:17;;;;;;;6.67;3.10;;;;;;;31.49;100.00;98381.84;5151084;27;20057;-61
2022/08/17 09:25:51;;;;;;;10.10;3.38;;;;;;;31.86;100.00;98396.19;5151054;27;20133;-57
2022/08/17 09:28:22;;;;;;;12.80;3.50;;;;;;;31.20;100.00;98369.94;5151146;27;20047;-57
2022/08/17 09:30:51;;;;;;;11.13;3.30;;;;;;;31.52;100.00;98366.63;5150890;27;20065;-56
2022/08/17 09:33:24;;;;;;;11.68;3.60;;;;;;;31.73;100.00;98389.63;5151072;27;20482;-60
2022/08/17 09:35:55;;;;;;;11.43;4.05;;;;;;;31.86;100.00;98384.09;5150701;27;20066;-60
2022/08/17 09:38:31;;;;;;;12.57;3.92;;;;;;;31.91;100.00;98368.34;5150791;27;20137;-55
2022/08/17 09:41:08;;;;;;;7.53;3.50;;;;;;;32.43;100.00;98387.91;5151129;27;20149;-57
2022/08/17 09:43:42;;;;;;;9.30;3.55;;;;;;;32.57;100.00;98400.13;5150623;27;20420;-57
2022/08/17 09:46:15;;;;;;;7.88;3.55;;;;;;;31.38;100.00;98371.38;5150944;27;20075;-61
2022/08/17 09:48:49;;;;;;;8.80;3.38;;;;;;;31.55;100.00;98355.00;5150697;27;20046;-61
2022/08/17 09:51:21;;;;;;;11.25;3.53;;;;;;;31.79;100.00;98368.44;5150703;27;20047;-57
2022/08/17 09:53:48;;;;;;;11.43;3.15;;;;;;;31.89;100.00;98385.91;5150902;27;20116;-57
2022/08/17 09:56:31;;;;;;;9.23;3.63;;;;;;;32.00;100.00;98365.94;5150717;27;20133;-56
2022/08/17 09:59:16;;;;;;;6.80;3.45;;;;;;;32.52;100.00;98381.88;5153511;27;20614;-58
2022/08/17 10:01:49;;;;;;;10.38;3.30;;;;;;;32.13;100.00;98385.13;5154323;27;20072;-57
2022/08/17 10:04:37;;;;;;;7.20;3.00;;;;;;;31.55;100.00;98382.56;5154167;27;20420;-54
2022/08/17 10:07:11;;;;;;;10.25;3.47;;;;;;;31.60;100.00;98367.59;5153967;27;20089;-55
2022/08/17 10:09:54;;;;;;;9.38;2.97;;;;;;;31.15;100.00;98350.94;5154045;27;20140;-56
2022/08/17 10:12:28;;;;;;;8.53;3.40;;;;;;;31.38;100.00;98346.66;5154262;27;20090;-55
2022/08/17 10:15:14;;;;;;;11.63;3.50;;;;;;;31.91;100.00;98342.84;5154167;27;20276;-58
2022/08/17 10:17:54;;;;;;;10.48;3.28;;;;;;;32.21;100.00;98371.13;5153670;27;20047;-61
2022/08/17 10:20:27;;;;;;;10.57;3.60;;;;;;;32.41;100.00;98372.69;5153856;27;20057;-56
2022/08/17 10:28:42;;;;;;;9.25;3.30;;;;;;;30.77;100.00;98356.34;5153815;27;20069;-56
2022/08/17 10:31:16;;;;;;;6.75;3.50;;;;;;;30.53;100.00;98333.56;5153823;27;20050;-56
2022/08/17 10:33:59;;;;;;;9.45;3.15;;;;;;;30.25;100.00;98304.09;5153842;27;20606;-60
2022/08/17 10:36:36;;;;;;;6.85;3.03;;;;;;;30.11;100.00;98287.44;5153720;27;20053;-56
2022/08/17 10:39:08;;;;;;;14.05;3.40;;;;;;;30.25;100.00;98301.28;5153590;27;20085;-57
2022/08/17 10:41:41;;;;;;;9.50;3.10;;;;;;;30.22;100.00;98271.25;5153359;27;20066;-56
2022/08/17 10:44:13;;;;;;;9.38;3.08;;;;;;;30.15;100.00;98310.56;5153440;27;20059;-60
2022/08/17 10:46:51;;;;;;;14.65;3.38;;;;;;;30.35;100.00;98296.09;5153671;27;20161;-61
2022/08/17 10:49:32;;;;;;;9.95;3.13;;;;;;;30.04;100.00;98280.28;5153220;27;20106;-60
2022/08/17 10:52:01;;;;;;;10.65;3.30;;;;;;;29.31;100.00;98319.94;5153332;27;20054;-60
2022/08/17 10:55:12;;;;;;;15.65;3.70;;;;;;;30.04;100.00;98336.03;5153618;27;20432;-61
2022/08/17 10:57:44;;;;;;;7.82;3.45;;;;;;;30.05;100.00;98366.59;5105398;27;20055;-61
2022/08/17 11:00:14;;;;;;;12.57;3.90;;;;;;;29.94;100.00;98350.44;5153214;27;20577;-60
2022/08/17 11:02:48;;;;;;;9.23;3.35;;;;;;;30.15;100.00;98348.06;5152914;27;20054;-60
2022/08/17 11:05:41;;;;;;;7.45;3.13;;;;;;;29.73;100.00;98354.88;5152796;27;20050;-61
2022/08/17 11:08:45;;;;;;;9.32;3.05;;;;;;;30.53;100.00;98336.38;5153033;27;20133;-61
2022/08/17 11:11:24;;;;;;;;;;;;;;;30.97;100.00;98371.41;5112348;27;20051;-60
2022/08/17 11:14:12;;;;;;;9.63;3.20;;;;;;;30.33;100.00;98340.34;5153051;27;20397;-60
2022/08/17 11:16:50;;;;;;;7.57;3.10;;;;;;;30.21;100.00;98353.72;5153066;27;20046;-60
2022/08/17 11:19:40;;;;;;;10.77;3.10;;;;;;;29.54;100.00;98329.19;5152921;27;20421;-61
2022/08/17 11:22:47;;;;;;;11.40;3.25;;;;;;;29.94;100.00;98322.19;5153049;27;20051;-60
2022/08/17 11:25:16;;;;;;;12.77;3.25;;;;;;;29.94;100.00;98310.13;5075347;27;20055;-61
2022/08/17 11:27:45;;;;;;;10.00;2.90;;;;;;;29.82;100.00;98280.34;5152827;27;20133;-61
2022/08/17 11:30:33;;;;;;;15.05;3.40;;;;;;;29.83;100.00;98279.84;5152940;27;20043;-61
2022/08/17 11:33:19;;;;;;;9.27;3.08;;;;;;;29.73;100.00;98293.50;5152647;27;20053;-61
2022/08/17 11:35:54;;;;;;;10.27;3.50;;;;;;;30.14;100.00;98270.22;5152584;27;20051;-60
2022/08/17 11:38:29;;;;;;;7.57;2.80;;;;;;;29.75;100.00;98307.84;5152807;27;20047;-60
2022/08/17 11:41:19;;;;;;;8.77;3.30;;;;;;;29.13;100.00;98273.28;5152550;27;20053;-60
2022/08/17 11:44:09;;;;;;;12.27;3.75;;;;;;;29.18;100.00;98249.13;5146634;27;20528;-60
2022/08/17 11:52:48;;;;;;;11.52;3.47;;;;;;;29.39;100.00;98216.53;5152852;27;20049;-60
2022/08/17 11:55:49;;;;;;;15.18;3.92;;;;;;;29.05;100.00;98204.50;5152772;27;20050;-60
2022/08/17 11:58:38;;;;;;;11.00;3.78;;;;;;;28.72;100.00;98160.91;5152442;27;20134;-61
2022/08/17 12:01:06;;;;;;;10.48;3.70;;;;;;;29.14;100.00;98155.50;5152333;27;20568;-61
2022/08/17 12:03:45;;;;;;;11.60;3.90;;;;;;;29.19;100.00;98130.09;5152113;27;20047;-60
2022/08/17 12:06:22;;;;;;;13.82;4.18;;;;;;;28.69;100.00;98107.59;5152231;27;20069;-60
2022/08/17 12:08:52;;;;;;;14.60;3.88;;;;;;;28.85;100.00;98101.91;5152024;27;20057;-61
2022/08/17 12:11:26;;;;;;;10.57;3.55;;;;;;;29.08;100.00;98099.06;5151968;27;20046;-60
2022/08/17 12:13:57;;;;;;;15.10;3.95;;;;;;;29.35;100.00;98125.66;5151979;27;20051;-61